createdAt,value
2022-10-20T00:01:13.486Z,4.33
2022-10-20T00:03:41.750Z,4.10
2022-10-20T00:06:11.730Z,4.38
2022-10-20T00:08:40.693Z,4.36
2022-10-20T00:11:09.309Z,4.33
2022-10-20T00:13:37.445Z,4.33
2022-10-20T00:16:06.170Z,4.30
2022-10-20T00:18:35.763Z,4.30
2022-10-20T00:21:07.065Z,4.29
2022-10-20T00:23:35.165Z,4.15
2022-10-20T00:26:05.292Z,4.26
2022-10-20T00:28:33.740Z,4.23
2022-10-20T00:31:02.196Z,4.12
2022-10-20T00:33:30.178Z,3.81
2022-10-20T00:36:01.699Z,4.14
2022-10-20T00:38:30.145Z,3.89
2022-10-20T00:41:00.126Z,4.13
2022-10-20T00:43:42.733Z,4.04
2022-10-20T00:46:12.415Z,4.07
2022-10-20T00:48:41.113Z,4.03
2022-10-20T00:51:10.625Z,3.90
2022-10-20T00:53:38.802Z,3.96
2022-10-20T00:56:07.097Z,3.96
2022-10-20T00:58:36.508Z,3.95
2022-10-20T01:01:05.026Z,3.93
2022-10-20T01:03:40.966Z,3.84
2022-10-20T01:06:10.306Z,3.90
2022-10-20T01:08:39.768Z,3.78
2022-10-20T01:11:19.091Z,3.68
2022-10-20T01:14:08.304Z,3.82
2022-10-20T01:16:46.072Z,3.82
2022-10-20T01:19:34.254Z,3.81
2022-10-20T01:22:18.005Z,3.80
2022-10-20T01:25:08.544Z,3.24
2022-10-20T01:27:40.907Z,3.79
2022-10-20T01:30:12.527Z,3.45
2022-10-20T01:33:04.678Z,3.65
2022-10-20T01:35:43.714Z,3.72
2022-10-20T01:38:21.272Z,3.71
2022-10-20T01:40:52.614Z,3.59
2022-10-20T01:43:25.749Z,3.47
2022-10-20T01:45:55.524Z,3.66
2022-10-20T01:48:28.822Z,3.62
2022-10-20T01:50:57.223Z,3.57
2022-10-20T01:53:25.302Z,3.55
2022-10-20T01:55:55.525Z,3.51
2022-10-20T01:59:06.843Z,3.47
2022-10-20T02:01:55.358Z,3.44
2022-10-20T02:04:31.512Z,3.41
2022-10-20T02:07:06.223Z,3.43
2022-10-20T02:09:39.537Z,3.43
2022-10-20T02:12:11.172Z,3.32
2022-10-20T02:14:42.260Z,3.42
2022-10-20T02:17:14.496Z,3.42
2022-10-20T02:19:44.473Z,3.43
2022-10-20T02:22:15.096Z,3.31
2022-10-20T02:24:45.174Z,2.79
2022-10-20T02:27:15.660Z,3.42
2022-10-20T02:29:49.854Z,3.42
2022-10-20T02:32:19.453Z,3.18
2022-10-20T02:34:47.358Z,3.29
2022-10-20T02:39:45.342Z,3.45
2022-10-20T02:42:13.187Z,3.43
2022-10-20T02:44:41.189Z,3.41
2022-10-20T02:47:10.408Z,3.28
2022-10-20T02:49:38.252Z,3.33
2022-10-20T02:52:06.393Z,3.27
2022-10-20T02:54:34.359Z,3.28
2022-10-20T02:57:02.256Z,3.15
2022-10-20T02:59:30.298Z,2.84
2022-10-20T03:01:58.206Z,3.21
2022-10-20T03:04:27.806Z,3.03
2022-10-20T03:06:55.887Z,3.05
2022-10-20T03:09:23.768Z,3.13
2022-10-20T03:11:51.699Z,3.19
2022-10-20T03:14:19.853Z,3.29
2022-10-20T03:16:47.817Z,3.30
2022-10-20T03:19:15.932Z,3.29
2022-10-20T03:21:46.351Z,3.28
2022-10-20T03:24:14.206Z,3.27
2022-10-20T03:26:42.214Z,3.25
2022-10-20T03:29:10.165Z,3.23
2022-10-20T03:31:38.129Z,3.23
2022-10-20T03:34:06.116Z,3.23
2022-10-20T03:36:34.178Z,2.99
2022-10-20T03:39:03.546Z,3.21
2022-10-20T03:41:31.661Z,3.18
2022-10-20T03:43:59.630Z,3.16
2022-10-20T03:46:27.512Z,3.13
2022-10-20T03:48:55.522Z,2.90
2022-10-20T03:51:23.708Z,3.08
2022-10-20T03:53:51.654Z,3.06
2022-10-20T03:56:22.017Z,2.77
2022-10-20T03:58:50.304Z,2.83
2022-10-20T04:01:20.400Z,3.01
2022-10-20T04:03:48.422Z,3.01
2022-10-20T04:06:16.903Z,3.01
2022-10-20T04:08:44.921Z,2.79
2022-10-20T04:11:13.508Z,3.03
2022-10-20T04:13:42.940Z,3.01
2022-10-20T04:16:10.795Z,2.40
2022-10-20T04:18:38.843Z,2.93
2022-10-20T04:21:07.185Z,2.80
2022-10-20T04:23:35.095Z,2.85
2022-10-20T04:26:09.467Z,2.84
2022-10-20T04:28:37.427Z,2.80
2022-10-20T04:31:07.315Z,2.78
2022-10-20T04:33:35.851Z,2.59
2022-10-20T04:36:06.970Z,2.72
2022-10-20T04:38:35.717Z,2.34
2022-10-20T04:41:05.744Z,2.71
2022-10-20T04:43:34.535Z,2.22
2022-10-20T04:46:07.115Z,2.67
2022-10-20T04:48:38.764Z,2.24
2022-10-20T04:51:09.009Z,2.66
2022-10-20T04:53:37.286Z,2.65
2022-10-20T04:56:06.737Z,2.67
2022-10-20T04:58:35.086Z,2.69
2022-10-20T05:01:03.714Z,2.10
2022-10-20T05:03:31.902Z,2.74
2022-10-20T05:06:11.526Z,2.36
2022-10-20T05:08:40.103Z,2.69
2022-10-20T05:11:08.793Z,2.66
2022-10-20T05:13:37.091Z,2.52
2022-10-20T05:16:05.956Z,2.61
2022-10-20T05:18:34.322Z,2.42
2022-10-20T05:21:09.444Z,2.58
2022-10-20T05:23:39.954Z,2.54
2022-10-20T05:26:10.466Z,2.18
2022-10-20T05:28:38.332Z,2.42
2022-10-20T05:31:08.279Z,2.44
2022-10-20T05:33:37.259Z,2.55
2022-10-20T05:36:10.005Z,2.43
2022-10-20T05:38:40.983Z,2.37
2022-10-20T05:41:10.523Z,2.60
2022-10-20T05:43:38.755Z,2.59
2022-10-20T05:46:07.363Z,2.59
2022-10-20T05:48:39.373Z,2.57
2022-10-20T05:51:13.895Z,2.56
2022-10-20T05:53:47.074Z,2.54
2022-10-20T05:56:17.957Z,2.53
2022-10-20T05:58:47.351Z,2.53
2022-10-20T06:01:19.214Z,2.48
2022-10-20T06:03:50.253Z,2.55
2022-10-20T06:06:18.745Z,2.57
2022-10-20T06:08:48.685Z,2.46
2022-10-20T06:11:17.017Z,2.49
2022-10-20T06:13:48.467Z,2.24
2022-10-20T06:16:22.547Z,2.70
2022-10-20T06:18:50.673Z,2.71
2022-10-20T06:21:20.332Z,2.74
2022-10-20T06:23:50.279Z,2.80
2022-10-20T06:26:20.076Z,2.85
2022-10-20T06:28:49.567Z,2.89
2022-10-20T06:31:19.241Z,2.84
2022-10-20T06:33:48.106Z,2.72
2022-10-20T06:36:16.806Z,3.08
2022-10-20T06:38:45.682Z,3.38
2022-10-20T06:41:17.359Z,3.37
2022-10-20T06:43:45.923Z,4.05
2022-10-20T06:46:16.141Z,4.13
2022-10-20T06:48:44.795Z,4.47
2022-10-20T06:51:14.763Z,4.22
2022-10-20T06:53:46.532Z,5.01
2022-10-20T06:56:18.128Z,5.20
2022-10-20T06:58:48.438Z,5.27
2022-10-20T07:01:19.312Z,5.26
2022-10-20T07:03:48.828Z,5.33
2022-10-20T07:06:20.029Z,5.35
2022-10-20T07:08:48.428Z,5.35
2022-10-20T07:11:19.455Z,5.53
2022-10-20T07:13:49.454Z,5.45
2022-10-20T07:16:19.227Z,5.55
2022-10-20T07:18:48.430Z,5.61
2022-10-20T07:21:18.697Z,5.76
2022-10-20T07:23:47.570Z,5.46
2022-10-20T07:26:19.046Z,6.48
2022-10-20T07:28:54.650Z,6.73
2022-10-20T07:31:27.099Z,6.79
2022-10-20T07:34:06.880Z,7.20
2022-10-20T07:36:44.429Z,7.67
2022-10-20T07:39:14.234Z,7.91
2022-10-20T07:41:47.420Z,8.58
2022-10-20T07:44:15.860Z,9.26
2022-10-20T07:46:43.922Z,9.65
2022-10-20T07:49:42.452Z,9.88
2022-10-20T07:52:01.328Z,10.07
2022-10-20T07:54:29.363Z,9.51
2022-10-20T07:56:58.685Z,9.87
2022-10-20T07:59:27.042Z,9.63
2022-10-20T08:01:56.251Z,9.88
2022-10-20T08:04:26.811Z,9.91
2022-10-20T08:06:54.992Z,10.04
2022-10-20T08:09:23.013Z,10.25
2022-10-20T08:11:54.616Z,10.35
2022-10-20T08:14:27.781Z,10.44
2022-10-20T08:16:58.247Z,10.34
2022-10-20T08:19:36.724Z,10.75
2022-10-20T08:22:04.719Z,10.76
2022-10-20T08:24:32.819Z,10.76
2022-10-20T08:27:01.744Z,11.02
2022-10-20T08:29:31.081Z,11.34
2022-10-20T08:31:59.205Z,11.25
2022-10-20T08:34:27.585Z,10.99
2022-10-20T08:36:55.504Z,11.27
2022-10-20T08:39:23.768Z,11.74
2022-10-20T08:42:07.920Z,11.95
2022-10-20T08:44:41.271Z,12.43
2022-10-20T08:47:19.356Z,12.68
2022-10-20T08:49:47.907Z,12.75
2022-10-20T08:52:16.562Z,12.46
2022-10-20T08:54:44.530Z,12.46
2022-10-20T08:57:23.234Z,12.51
2022-10-20T08:59:54.521Z,12.14
2022-10-20T09:02:23.635Z,11.64
2022-10-20T09:04:55.141Z,11.22
2022-10-20T09:07:29.841Z,11.18
2022-10-20T09:10:05.927Z,11.56
2022-10-20T09:12:35.014Z,11.83
2022-10-20T09:15:04.519Z,12.53
2022-10-20T09:17:33.108Z,13.15
2022-10-20T09:20:02.407Z,13.90
2022-10-20T09:22:35.703Z,14.49
2022-10-20T09:25:04.915Z,14.91
2022-10-20T09:27:35.558Z,14.57
2022-10-20T09:30:21.088Z,14.38
2022-10-20T09:32:49.774Z,14.01
2022-10-20T09:35:24.929Z,14.09
2022-10-20T09:38:03.793Z,14.70
2022-10-20T09:40:32.695Z,14.87
2022-10-20T09:43:04.023Z,14.94
2022-10-20T09:45:36.073Z,15.05
2022-10-20T09:48:09.173Z,15.41
2022-10-20T09:50:41.463Z,14.99
2022-10-20T09:53:20.235Z,14.25
2022-10-20T09:55:49.901Z,14.28
2022-10-20T09:58:22.895Z,14.25
2022-10-20T10:01:01.231Z,14.28
2022-10-20T10:03:29.442Z,14.44
2022-10-20T10:05:59.091Z,15.00
2022-10-20T10:08:30.704Z,15.47
2022-10-20T10:11:02.566Z,15.30
2022-10-20T10:13:33.442Z,15.07
2022-10-20T10:16:08.562Z,14.89
2022-10-20T10:18:38.927Z,15.10
2022-10-20T10:21:09.613Z,15.35
2022-10-20T10:23:51.272Z,15.67
2022-10-20T10:26:42.469Z,15.60
2022-10-20T10:29:19.937Z,15.12
2022-10-20T10:31:57.201Z,15.05
2022-10-20T10:34:48.785Z,14.57
2022-10-20T10:37:18.100Z,14.72
2022-10-20T10:39:46.595Z,15.09
2022-10-20T10:42:40.397Z,15.21
2022-10-20T10:45:26.555Z,14.61
2022-10-20T10:48:15.247Z,14.25
2022-10-20T10:50:52.589Z,14.24
2022-10-20T10:53:34.726Z,14.80
2022-10-20T10:56:12.358Z,15.36
2022-10-20T10:58:59.988Z,15.66
2022-10-20T11:01:49.482Z,16.10
2022-10-20T11:04:44.461Z,16.16
2022-10-20T11:07:21.231Z,16.25
2022-10-20T11:09:59.535Z,16.16
2022-10-20T11:12:42.130Z,14.98
2022-10-20T11:15:29.030Z,14.36
2022-10-20T11:18:02.357Z,14.20
2022-10-20T11:20:41.001Z,14.81
2022-10-20T11:23:31.509Z,15.30
2022-10-20T11:26:12.360Z,15.18
2022-10-20T11:28:45.282Z,14.52
2022-10-20T11:31:22.650Z,14.38
2022-10-20T11:33:56.626Z,14.49
2022-10-20T11:36:32.933Z,14.57
2022-10-20T11:39:01.404Z,14.56
2022-10-20T11:41:35.603Z,14.51
2022-10-20T11:44:07.869Z,14.10
2022-10-20T11:46:46.556Z,14.20
2022-10-20T11:49:14.662Z,14.23
2022-10-20T11:52:07.552Z,14.06
2022-10-20T11:54:49.301Z,14.00
2022-10-20T11:57:31.917Z,13.77
2022-10-20T12:03:41.172Z,12.78
2022-10-20T12:06:50.352Z,12.19
2022-10-20T12:09:35.553Z,12.05
2022-10-20T12:12:07.969Z,11.90
2022-10-20T12:14:40.532Z,11.55
2022-10-20T12:17:29.492Z,11.45
2022-10-20T12:20:30.967Z,11.74
2022-10-20T12:23:01.655Z,11.97
2022-10-20T12:25:40.742Z,11.67
2022-10-20T12:28:42.650Z,11.56
2022-10-20T12:31:10.873Z,11.86
2022-10-20T12:33:42.448Z,12.24
2022-10-20T12:36:31.011Z,12.08
2022-10-20T12:39:16.128Z,12.15
2022-10-20T12:41:57.614Z,12.19
2022-10-20T12:44:27.625Z,12.31
2022-10-20T12:46:58.526Z,12.20
2022-10-20T12:49:32.353Z,12.20
2022-10-20T12:52:01.731Z,11.91
2022-10-20T12:54:36.560Z,12.18
2022-10-20T12:57:26.647Z,12.53
2022-10-20T12:59:54.890Z,12.73
2022-10-20T13:02:47.677Z,12.89
2022-10-20T13:05:49.448Z,13.56
2022-10-20T13:08:29.363Z,14.03
2022-10-20T13:11:18.197Z,13.90
2022-10-20T13:14:07.124Z,14.51
2022-10-20T13:16:35.773Z,14.85
2022-10-20T13:19:08.837Z,15.25
2022-10-20T13:21:36.814Z,15.54
2022-10-20T13:24:13.689Z,15.82
2022-10-20T13:26:49.690Z,15.37
2022-10-20T13:29:26.244Z,15.36
2022-10-20T13:34:49.382Z,15.49
2022-10-20T13:37:41.428Z,15.17
2022-10-20T13:40:23.388Z,14.84
2022-10-20T13:43:02.364Z,14.84
2022-10-20T13:45:48.304Z,14.72
2022-10-20T13:48:30.034Z,14.20
2022-10-20T13:51:01.770Z,13.77
2022-10-20T13:53:34.080Z,13.82
2022-10-20T13:56:06.814Z,13.92
2022-10-20T13:58:35.702Z,13.61
2022-10-20T14:01:07.573Z,12.88
2022-10-20T14:03:44.550Z,12.30
2022-10-20T14:06:30.674Z,11.54
2022-10-20T14:09:00.755Z,11.34
2022-10-20T14:11:32.985Z,11.07
2022-10-20T14:14:02.332Z,10.72
2022-10-20T14:16:33.008Z,10.63
2022-10-20T14:19:03.006Z,10.40
2022-10-20T14:21:31.098Z,10.29
2022-10-20T14:24:04.180Z,10.16
2022-10-20T14:26:34.444Z,10.16
2022-10-20T14:29:03.841Z,9.95
2022-10-20T14:31:33.428Z,9.69
2022-10-20T14:34:01.336Z,9.63
2022-10-20T14:36:31.192Z,9.51
2022-10-20T14:39:02.036Z,9.51
2022-10-20T14:41:32.377Z,9.47
2022-10-20T14:44:05.223Z,9.43
2022-10-20T14:46:41.130Z,9.08
2022-10-20T14:49:16.524Z,9.32
2022-10-20T14:51:55.035Z,9.18
2022-10-20T14:54:36.286Z,9.21
2022-10-20T14:57:31.495Z,9.14
2022-10-20T15:00:03.763Z,9.11
2022-10-20T15:02:35.563Z,9.06
2022-10-20T15:05:22.536Z,8.99
2022-10-20T15:07:50.606Z,8.90
2022-10-20T15:10:21.846Z,8.82
2022-10-20T15:12:52.941Z,8.79
2022-10-20T15:15:23.953Z,8.69
2022-10-20T15:17:54.447Z,8.57
2022-10-20T15:20:34.593Z,8.65
2022-10-20T15:23:04.443Z,8.56
2022-10-20T15:25:38.349Z,8.56
2022-10-20T15:28:08.113Z,8.45
2022-10-20T15:30:36.444Z,8.44
2022-10-20T15:33:05.772Z,8.20
2022-10-20T15:35:34.720Z,8.38
2022-10-20T15:38:02.707Z,8.35
2022-10-20T15:40:30.537Z,8.30
2022-10-20T15:42:58.421Z,8.14
2022-10-20T15:45:26.804Z,8.18
2022-10-20T15:47:54.686Z,8.15
2022-10-20T15:50:24.951Z,8.17
2022-10-20T15:52:54.242Z,7.92
2022-10-20T15:55:25.870Z,8.09
2022-10-20T15:57:55.439Z,8.06
2022-10-20T16:00:25.733Z,8.04
2022-10-20T16:02:54.001Z,8.03
2022-10-20T16:05:25.259Z,7.90
2022-10-20T16:07:54.647Z,7.81
2022-10-20T16:10:23.599Z,7.72
2022-10-20T16:12:51.865Z,7.78
2022-10-20T16:15:19.959Z,7.71
2022-10-20T16:20:17.465Z,7.57
2022-10-20T16:22:46.864Z,7.64
2022-10-20T16:25:15.077Z,7.70
2022-10-20T16:27:42.978Z,7.68
2022-10-20T16:30:11.530Z,7.62
2022-10-20T16:32:40.113Z,7.62
2022-10-20T16:35:08.678Z,7.57
2022-10-20T16:37:37.114Z,7.46
2022-10-20T16:40:07.693Z,7.43
2022-10-20T16:42:35.560Z,6.83
2022-10-20T16:45:03.672Z,7.28
2022-10-20T16:47:31.570Z,7.20
2022-10-20T16:49:59.431Z,7.12
2022-10-20T16:52:27.474Z,7.04
2022-10-20T16:54:55.314Z,6.98
2022-10-20T16:57:28.481Z,6.94
2022-10-20T17:00:00.005Z,6.84
2022-10-20T17:02:27.863Z,6.83
2022-10-20T17:04:55.810Z,6.79
2022-10-20T17:07:23.804Z,6.75
2022-10-20T17:09:51.638Z,6.73
2022-10-20T17:12:19.691Z,6.70
2022-10-20T17:14:49.109Z,6.67
2022-10-20T17:17:16.999Z,6.63
2022-10-20T17:19:45.130Z,6.61
2022-10-20T17:22:13.111Z,6.61
2022-10-20T17:24:40.957Z,6.60
2022-10-20T17:27:09.172Z,6.44
2022-10-20T17:29:37.393Z,6.53
2022-10-20T17:32:07.181Z,6.37
2022-10-20T17:34:35.475Z,6.46
2022-10-20T17:37:03.396Z,6.32
2022-10-20T17:39:31.384Z,6.40
2022-10-20T17:41:59.377Z,6.30
2022-10-20T17:44:27.534Z,6.35
2022-10-20T17:46:55.391Z,6.23
2022-10-20T17:49:24.668Z,6.34
2022-10-20T17:51:52.635Z,6.23
2022-10-20T17:54:20.669Z,6.39
2022-10-20T17:56:50.681Z,6.31
2022-10-20T17:59:19.137Z,6.39
2022-10-20T18:01:47.226Z,6.38
2022-10-20T18:04:17.240Z,6.37
2022-10-20T18:06:47.187Z,6.37
2022-10-20T18:09:17.383Z,6.36
2022-10-20T18:11:48.315Z,6.37
2022-10-20T18:14:17.096Z,6.30
2022-10-20T18:16:45.894Z,6.03
2022-10-20T18:19:16.071Z,6.27
2022-10-20T18:21:44.032Z,6.29
2022-10-20T18:24:14.848Z,6.26
2022-10-20T18:26:43.403Z,6.24
2022-10-20T18:29:12.788Z,6.15
2022-10-20T18:31:42.565Z,6.19
2022-10-20T18:34:13.195Z,6.04
2022-10-20T18:36:44.961Z,6.16
2022-10-20T18:39:16.065Z,6.16
2022-10-20T18:41:45.684Z,5.79
2022-10-20T18:44:15.353Z,6.10
2022-10-20T18:46:44.638Z,6.01
2022-10-20T18:49:14.462Z,6.04
2022-10-20T18:51:42.866Z,6.04
2022-10-20T18:54:11.085Z,6.01
2022-10-20T18:56:40.350Z,5.99
2022-10-20T18:59:10.382Z,5.98
2022-10-20T19:01:40.245Z,5.88
2022-10-20T19:04:10.131Z,5.47
2022-10-20T19:06:41.070Z,5.92
2022-10-20T19:09:18.824Z,5.91
2022-10-20T19:14:18.502Z,5.88
2022-10-20T19:16:47.865Z,5.87
2022-10-20T19:19:16.925Z,5.84
2022-10-20T19:21:45.077Z,5.82
2022-10-20T19:24:16.395Z,5.81
2022-10-20T19:26:56.995Z,5.47
2022-10-20T19:29:35.971Z,5.68
2022-10-20T19:32:05.977Z,5.74
2022-10-20T19:34:36.548Z,5.72
2022-10-20T19:37:04.960Z,5.69
2022-10-20T19:39:35.757Z,5.46
2022-10-20T19:42:05.577Z,5.61
2022-10-20T19:44:35.852Z,5.36
2022-10-20T19:47:05.056Z,5.45
2022-10-20T19:49:33.517Z,5.55
2022-10-20T19:52:01.771Z,5.36
2022-10-20T19:54:30.193Z,5.33
2022-10-20T19:56:58.403Z,5.55
2022-10-20T19:59:26.553Z,5.47
2022-10-20T20:01:55.827Z,5.48
2022-10-20T20:04:23.856Z,5.42
2022-10-20T20:06:52.361Z,5.51
2022-10-20T20:09:20.287Z,5.42
2022-10-20T20:11:48.193Z,5.16
2022-10-20T20:14:17.996Z,5.31
2022-10-20T20:16:47.054Z,5.49
2022-10-20T20:19:17.716Z,5.53
2022-10-20T20:21:46.336Z,5.55
2022-10-20T20:24:14.838Z,5.54
2022-10-20T20:26:43.425Z,5.47
2022-10-20T20:29:11.687Z,5.26
2022-10-20T20:31:40.515Z,5.59
2022-10-20T20:34:08.492Z,5.60
2022-10-20T20:36:39.511Z,5.71
2022-10-20T20:39:08.546Z,5.53
2022-10-20T20:41:36.666Z,5.69
2022-10-20T20:44:08.273Z,5.85
2022-10-20T20:46:36.780Z,5.80
2022-10-20T20:49:05.115Z,5.84
2022-10-20T20:51:34.099Z,5.99
2022-10-20T20:54:04.169Z,6.04
2022-10-20T20:56:32.471Z,6.09
2022-10-20T20:59:00.511Z,6.13
2022-10-20T21:01:31.707Z,6.06
2022-10-20T21:04:02.136Z,5.92
2022-10-20T21:06:56.650Z,6.01
2022-10-20T21:09:20.205Z,6.29
2022-10-20T21:11:49.162Z,6.34
2022-10-20T21:14:17.170Z,6.37
2022-10-20T21:16:45.574Z,6.39
2022-10-20T21:19:13.861Z,6.36
2022-10-20T21:21:44.550Z,6.46
2022-10-20T21:24:13.836Z,6.48
2022-10-20T21:26:43.657Z,6.54
2022-10-20T21:29:11.857Z,6.61
2022-10-20T21:31:40.889Z,6.39
2022-10-20T21:34:08.832Z,6.53
2022-10-20T21:36:38.683Z,6.55
2022-10-20T21:39:08.996Z,6.69
2022-10-20T21:41:38.603Z,6.74
2022-10-20T21:44:08.673Z,6.45
2022-10-20T21:46:39.339Z,6.82
2022-10-20T21:49:10.434Z,6.88
2022-10-20T21:51:39.754Z,6.89
2022-10-20T21:54:11.248Z,6.86
2022-10-20T21:56:43.529Z,6.88
2022-10-20T21:59:18.980Z,6.89
2022-10-20T22:01:47.309Z,6.91
2022-10-20T22:04:16.046Z,6.94
2022-10-20T22:06:44.230Z,6.97
2022-10-20T22:09:13.624Z,7.00
2022-10-20T22:11:44.076Z,7.02
2022-10-20T22:14:12.875Z,7.07
2022-10-20T22:16:43.742Z,7.09
2022-10-20T22:19:14.995Z,7.09
2022-10-20T22:21:47.216Z,7.06
2022-10-20T22:24:16.489Z,7.08
2022-10-20T22:26:44.473Z,7.09
2022-10-20T22:29:12.764Z,7.08
2022-10-20T22:31:43.040Z,7.10
2022-10-20T22:34:11.912Z,6.82
2022-10-20T22:36:40.884Z,6.88
2022-10-20T22:39:09.936Z,6.86
2022-10-20T22:41:38.066Z,6.87
2022-10-20T22:44:06.509Z,7.13
2022-10-20T22:46:34.956Z,7.08
2022-10-20T22:49:06.044Z,7.11
2022-10-20T22:51:33.879Z,7.09
2022-10-20T22:54:03.023Z,7.11
2022-10-20T22:56:30.949Z,6.92
2022-10-20T22:59:01.087Z,7.14
2022-10-20T23:01:29.255Z,7.14
2022-10-20T23:03:57.253Z,7.09
2022-10-20T23:06:27.996Z,6.99
2022-10-20T23:08:57.452Z,7.09
2022-10-20T23:11:25.399Z,7.11
2022-10-20T23:13:53.495Z,7.14
2022-10-20T23:16:22.123Z,7.18
2022-10-20T23:18:50.129Z,7.16
2022-10-20T23:21:19.488Z,7.17
2022-10-20T23:23:49.059Z,7.06
2022-10-20T23:26:17.028Z,7.09
2022-10-20T23:28:44.897Z,7.22
2022-10-20T23:31:14.233Z,7.13
2022-10-20T23:33:43.925Z,7.24
2022-10-20T23:36:13.186Z,7.26
2022-10-20T23:38:41.357Z,7.28
2022-10-20T23:41:10.675Z,7.23
2022-10-20T23:43:38.693Z,7.29
2022-10-20T23:46:07.539Z,7.04
2022-10-20T23:48:35.781Z,7.31
2022-10-20T23:51:03.880Z,7.30
2022-10-20T23:53:32.614Z,7.30
2022-10-20T23:56:00.778Z,7.12
2022-10-20T23:58:30.085Z,7.31
